sensor_id;sensor_type;location;lat;lon;timestamp;temperature;humidity
46181;DHT22;58963;50.438;30.594;2022-11-15T00:03:15;4.60;99.90
46181;DHT22;58963;50.438;30.594;2022-11-15T00:08:34;4.60;99.90
46181;DHT22;58963;50.438;30.594;2022-11-15T00:13:57;4.50;99.90
46181;DHT22;58963;50.438;30.594;2022-11-15T00:19:16;4.60;99.90
46181;DHT22;58963;50.438;30.594;2022-11-15T00:24:35;4.60;99.90
46181;DHT22;58963;50.438;30.594;2022-11-15T00:29:55;4.60;99.90
46181;DHT22;58963;50.438;30.594;2022-11-15T00:35:14;4.40;99.90
46181;DHT22;58963;50.438;30.594;2022-11-15T00:40:33;4.40;99.90
46181;DHT22;58963;50.438;30.594;2022-11-15T00:45:52;4.30;99.90
46181;DHT22;58963;50.438;30.594;2022-11-15T00:51:12;4.20;99.90
46181;DHT22;58963;50.438;30.594;2022-11-15T00:56:31;4.20;99.90
46181;DHT22;58963;50.438;30.594;2022-11-15T01:01:50;4.30;99.90
46181;DHT22;58963;50.438;30.594;2022-11-15T01:07:10;4.30;99.90
46181;DHT22;58963;50.438;30.594;2022-11-15T01:12:29;4.30;99.90
46181;DHT22;58963;50.438;30.594;2022-11-15T01:17:49;4.30;99.90
46181;DHT22;58963;50.438;30.594;2022-11-15T01:23:08;4.40;99.90
46181;DHT22;58963;50.438;30.594;2022-11-15T01:28:36;4.30;99.90
46181;DHT22;58963;50.438;30.594;2022-11-15T01:33:56;4.30;99.90
46181;DHT22;58963;50.438;30.594;2022-11-15T01:39:15;4.40;99.90
46181;DHT22;58963;50.438;30.594;2022-11-15T01:44:39;4.50;99.90
46181;DHT22;58963;50.438;30.594;2022-11-15T01:50:10;4.50;99.90
46181;DHT22;58963;50.438;30.594;2022-11-15T01:55:31;4.50;99.90
46181;DHT22;58963;50.438;30.594;2022-11-15T02:00:51;4.50;99.90
46181;DHT22;58963;50.438;30.594;2022-11-15T02:06:11;4.60;99.90
46181;DHT22;58963;50.438;30.594;2022-11-15T02:11:31;4.60;99.90
46181;DHT22;58963;50.438;30.594;2022-11-15T02:22:43;4.50;99.90
46181;DHT22;58963;50.438;30.594;2022-11-15T02:28:38;4.50;99.90
46181;DHT22;58963;50.438;30.594;2022-11-15T02:40:05;4.40;99.90
46181;DHT22;58963;50.438;30.594;2022-11-15T02:45:29;4.40;99.90
46181;DHT22;58963;50.438;30.594;2022-11-15T02:50:49;4.50;99.90
46181;DHT22;58963;50.438;30.594;2022-11-15T02:56:09;4.40;99.90
46181;DHT22;58963;50.438;30.594;2022-11-15T03:01:49;4.40;99.90
46181;DHT22;58963;50.438;30.594;2022-11-15T03:07:18;4.50;99.90
46181;DHT22;58963;50.438;30.594;2022-11-15T03:18:15;4.30;99.90
46181;DHT22;58963;50.438;30.594;2022-11-15T03:23:39;4.20;99.90
46181;DHT22;58963;50.438;30.594;2022-11-15T03:29:04;4.10;99.90
46181;DHT22;58963;50.438;30.594;2022-11-15T03:34:49;4.10;99.90
46181;DHT22;58963;50.438;30.594;2022-11-15T03:40:10;4.10;99.90
46181;DHT22;58963;50.438;30.594;2022-11-15T03:45:39;4.10;99.90
46181;DHT22;58963;50.438;30.594;2022-11-15T03:51:00;4.10;99.90
46181;DHT22;58963;50.438;30.594;2022-11-15T03:56:20;4.10;99.90
46181;DHT22;58963;50.438;30.594;2022-11-15T04:01:39;4.10;99.90
46181;DHT22;58963;50.438;30.594;2022-11-15T04:06:58;4.10;99.90
46181;DHT22;58963;50.438;30.594;2022-11-15T04:12:17;4.20;99.90
46181;DHT22;58963;50.438;30.594;2022-11-15T04:17:55;4.30;99.90
46181;DHT22;58963;50.438;30.594;2022-11-15T04:23:22;4.40;99.90
46181;DHT22;58963;50.438;30.594;2022-11-15T04:29:01;4.40;99.90
46181;DHT22;58963;50.438;30.594;2022-11-15T04:34:39;4.30;99.90
46181;DHT22;58963;50.438;30.594;2022-11-15T04:39:58;4.30;99.90
46181;DHT22;58963;50.438;30.594;2022-11-15T04:45:17;4.30;99.90
46181;DHT22;58963;50.438;30.594;2022-11-15T04:50:37;4.30;99.90
46181;DHT22;58963;50.438;30.594;2022-11-15T04:55:56;4.30;99.90
46181;DHT22;58963;50.438;30.594;2022-11-15T05:01:15;4.40;99.90
46181;DHT22;58963;50.438;30.594;2022-11-15T07:34:29;5.10;99.90
46181;DHT22;58963;50.438;30.594;2022-11-15T07:39:51;4.70;99.90
46181;DHT22;58963;50.438;30.594;2022-11-15T07:45:11;4.70;99.90
46181;DHT22;58963;50.438;30.594;2022-11-15T07:50:30;4.70;99.90
46181;DHT22;58963;50.438;30.594;2022-11-15T07:55:50;4.90;99.90
46181;DHT22;58963;50.438;30.594;2022-11-15T08:01:10;5.10;99.90
46181;DHT22;58963;50.438;30.594;2022-11-15T08:06:29;5.40;99.90
46181;DHT22;58963;50.438;30.594;2022-11-15T08:11:49;5.00;99.90
46181;DHT22;58963;50.438;30.594;2022-11-15T08:17:08;4.90;99.90
46181;DHT22;58963;50.438;30.594;2022-11-15T08:22:28;4.80;99.90
46181;DHT22;58963;50.438;30.594;2022-11-15T08:27:47;4.80;99.90
46181;DHT22;58963;50.438;30.594;2022-11-15T08:33:09;4.60;99.90
46181;DHT22;58963;50.438;30.594;2022-11-15T08:38:29;4.70;99.90
46181;DHT22;58963;50.438;30.594;2022-11-15T08:43:49;5.00;99.90
46181;DHT22;58963;50.438;30.594;2022-11-15T08:49:09;5.20;99.90
46181;DHT22;58963;50.438;30.594;2022-11-15T08:54:28;5.00;99.90
46181;DHT22;58963;50.438;30.594;2022-11-15T08:59:47;5.10;99.90
46181;DHT22;58963;50.438;30.594;2022-11-15T09:05:07;5.10;99.90
46181;DHT22;58963;50.438;30.594;2022-11-15T09:10:27;4.70;99.90
46181;DHT22;58963;50.438;30.594;2022-11-15T09:15:46;4.90;99.90
46181;DHT22;58963;50.438;30.594;2022-11-15T09:21:05;4.50;99.90
46181;DHT22;58963;50.438;30.594;2022-11-15T09:26:24;4.60;99.90
46181;DHT22;58963;50.438;30.594;2022-11-15T09:31:44;4.50;99.90
46181;DHT22;58963;50.438;30.594;2022-11-15T09:37:04;4.50;99.90
46181;DHT22;58963;50.438;30.594;2022-11-15T10:05:00;4.50;99.90
46181;DHT22;58963;50.438;30.594;2022-11-15T10:10:46;4.60;99.90
46181;DHT22;58963;50.438;30.594;2022-11-15T10:22:21;4.70;99.90
46181;DHT22;58963;50.438;30.594;2022-11-15T10:27:50;4.70;99.90
46181;DHT22;58963;50.438;30.594;2022-11-15T10:44:18;4.70;99.90
46181;DHT22;58963;50.438;30.594;2022-11-15T10:50:05;4.90;99.90
46181;DHT22;58963;50.438;30.594;2022-11-15T10:55:29;4.70;99.90
46181;DHT22;58963;50.438;30.594;2022-11-15T11:00:52;4.80;99.90
46181;DHT22;58963;50.438;30.594;2022-11-15T11:06:15;4.90;99.90
46181;DHT22;58963;50.438;30.594;2022-11-15T11:11:50;5.00;99.90
46181;DHT22;58963;50.438;30.594;2022-11-15T11:23:45;5.10;99.90
46181;DHT22;58963;50.438;30.594;2022-11-15T11:41:18;5.20;99.90
46181;DHT22;58963;50.438;30.594;2022-11-15T11:47:11;5.30;99.90
46181;DHT22;58963;50.438;30.594;2022-11-15T11:58:41;5.40;99.90
46181;DHT22;58963;50.438;30.594;2022-11-15T12:15:50;5.50;99.90
46181;DHT22;58963;50.438;30.594;2022-11-15T12:26:56;5.60;99.90
46181;DHT22;58963;50.438;30.594;2022-11-15T12:32:33;5.60;99.90
46181;DHT22;58963;50.438;30.594;2022-11-15T12:37:55;5.60;99.90
46181;DHT22;58963;50.438;30.594;2022-11-15T12:53:53;5.80;99.90
46181;DHT22;58963;50.438;30.594;2022-11-15T13:10:37;6.00;99.90
46181;DHT22;58963;50.438;30.594;2022-11-15T13:15:59;6.00;99.90
46181;DHT22;58963;50.438;30.594;2022-11-15T13:21:22;6.10;99.90
46181;DHT22;58963;50.438;30.594;2022-11-15T13:27:01;6.10;99.90
46181;DHT22;58963;50.438;30.594;2022-11-15T13:32:20;6.20;99.90
46181;DHT22;58963;50.438;30.594;2022-11-15T13:37:40;6.30;99.90
46181;DHT22;58963;50.438;30.594;2022-11-15T13:48:41;6.30;99.90
46181;DHT22;58963;50.438;30.594;2022-11-15T13:59:43;6.40;99.90
46181;DHT22;58963;50.438;30.594;2022-11-15T14:05:19;6.40;99.90
46181;DHT22;58963;50.438;30.594;2022-11-15T14:10:40;6.40;99.90
46181;DHT22;58963;50.438;30.594;2022-11-15T18:16:35;6.90;99.90
46181;DHT22;58963;50.438;30.594;2022-11-15T18:21:55;6.90;99.90
46181;DHT22;58963;50.438;30.594;2022-11-15T18:27:14;6.90;99.90
46181;DHT22;58963;50.438;30.594;2022-11-15T18:32:33;6.90;99.90
46181;DHT22;58963;50.438;30.594;2022-11-15T18:37:52;6.90;99.90
46181;DHT22;58963;50.438;30.594;2022-11-15T18:43:14;6.90;99.90
46181;DHT22;58963;50.438;30.594;2022-11-15T18:48:33;6.90;99.90
46181;DHT22;58963;50.438;30.594;2022-11-15T18:53:59;6.80;99.90
46181;DHT22;58963;50.438;30.594;2022-11-15T18:59:19;6.90;99.90
46181;DHT22;58963;50.438;30.594;2022-11-15T19:04:38;6.90;99.90
46181;DHT22;58963;50.438;30.594;2022-11-15T19:09:57;6.90;99.90
46181;DHT22;58963;50.438;30.594;2022-11-15T19:15:16;6.80;99.90
46181;DHT22;58963;50.438;30.594;2022-11-15T19:20:37;6.90;99.90
46181;DHT22;58963;50.438;30.594;2022-11-15T19:25:57;7.00;99.90
46181;DHT22;58963;50.438;30.594;2022-11-15T19:31:17;7.10;99.90
46181;DHT22;58963;50.438;30.594;2022-11-15T19:36:39;7.10;99.90
46181;DHT22;58963;50.438;30.594;2022-11-15T19:41:59;7.10;99.90
46181;DHT22;58963;50.438;30.594;2022-11-15T19:47:18;7.10;99.90
46181;DHT22;58963;50.438;30.594;2022-11-15T19:52:37;7.10;99.90
46181;DHT22;58963;50.438;30.594;2022-11-15T19:57:56;7.10;99.90
46181;DHT22;58963;50.438;30.594;2022-11-15T20:03:16;7.10;99.90
46181;DHT22;58963;50.438;30.594;2022-11-15T20:08:36;7.10;99.90
46181;DHT22;58963;50.438;30.594;2022-11-15T20:13:57;7.20;99.90
46181;DHT22;58963;50.438;30.594;2022-11-15T20:19:17;7.20;99.90
46181;DHT22;58963;50.438;30.594;2022-11-15T20:24:37;7.10;99.90
46181;DHT22;58963;50.438;30.594;2022-11-15T20:29:56;7.10;99.90
46181;DHT22;58963;50.438;30.594;2022-11-15T20:35:15;7.10;99.90
46181;DHT22;58963;50.438;30.594;2022-11-15T20:40:34;7.10;99.90
46181;DHT22;58963;50.438;30.594;2022-11-15T20:45:54;7.10;99.90
46181;DHT22;58963;50.438;30.594;2022-11-15T20:51:16;7.20;99.90
46181;DHT22;58963;50.438;30.594;2022-11-15T20:56:36;7.20;99.90
46181;DHT22;58963;50.438;30.594;2022-11-15T21:01:56;7.30;99.90
46181;DHT22;58963;50.438;30.594;2022-11-15T21:07:15;7.30;99.90
